LGHI/JKH METAR and TAF weather

Enter ICAO airport designator
Station Type Date Time Source
LGHI METAR 2020/09/26 22:50 UTC NOAA

LGHI 262250Z 00000KT CAVOK 24/18 Q1005


Station Type Date Time Source
LGHI Decoded METAR 2020/09/26 22:50 UTC NOAA

Chios Airport , Greece (LGHI) 38-20N 026-08E 4M
Sep 26, 2020 - 06:50 PM EDT / 2020.09.26 2250 UTC
Wind: Calm:0
Visibility: greater than 7 mile(s):0
Temperature: 75 F (24 C)
Dew Point: 64 F (18 C)
Relative Humidity: 69%
Pressure (altimeter): 29.68 in. Hg (1005 hPa)
ob: LGHI 262250Z 00000KT CAVOK 24/18 Q1005
cycle: 23

Station Type Date Time Source
LGHI TAF 2012/09/21 03:06 UTC NOAA

TAF TAF LGHI 210200Z 2103/2115 VRB05KT 9999 SCT020 PROB30
TEMPO 2103/2106 7000 RA SCT018 BKN030
BECMG 2103/2105 30018KT

Example: see airport list